EmailTwitter


Surface observations / United Kingdom / EGUB (03658)

Regions: Quebec | Canada | USA | Europe | France | UK | Elsewhere
Station
Display
Info & Location for EGUB (03658) | Help decoding METAR

Weather Conditions observed on 2017/03/25 at 02:50 UTC at BENSON RAF, UK (EGUB)

Temperature: 3.0 Celsius.

Dewpoint: 2.0 Celsius.

Relative Humidity: 93%

Windchill Factor: 0.

Winds: North at 13 km/h or 7 knots.

Mean Sea level Pressure: 103.20 kilopascals.

Horizontal visibility: 6.21 statute miles or 9.94 kilometers.

Coded METAR:

EGUB 250250Z AUTO 01007KT 9999 // NCD 03/02 Q1032=